Time;durP1;ratioP1;P1;durP2;ratioP2;P2;SDS_P1;SDS_P2;PMS_P1;PMS_P2;Temp;Humidity;BMP_temperature;BMP_pressure;BME280_temperature;BME280_humidity;BME280_pressure;Samples;Min_cycle;Max_cycle;Signal;HPM_P1;HPM_P2
2021/07/04 00:00:21;;;;;;;10.38;7.90;;;16.60;99.90;;;;;;5035743;28;20060;-73
2021/07/04 00:02:47;;;;;;;9.88;8.43;;;16.60;99.90;;;;;;5035903;28;20017;-75
2021/07/04 00:05:17;;;;;;;11.38;9.32;;;16.60;99.90;;;;;;5035615;28;20021;-74
2021/07/04 00:07:43;;;;;;;11.68;9.40;;;16.60;99.90;;;;;;5035906;28;20405;-74
2021/07/04 00:10:15;;;;;;;13.50;8.93;;;16.60;99.90;;;;;;5035776;28;20032;-74
2021/07/04 00:12:41;;;;;;;11.05;9.68;;;16.60;99.90;;;;;;5017554;28;20117;-75
2021/07/04 00:15:09;;;;;;;12.60;10.02;;;16.60;99.90;;;;;;5035982;28;20067;-74
2021/07/04 00:17:35;;;;;;;10.82;9.32;;;16.60;99.90;;;;;;5035334;28;20130;-75
2021/07/04 00:20:01;;;;;;;17.60;10.65;;;16.60;99.90;;;;;;5035632;28;20032;-74
2021/07/04 00:22:27;;;;;;;12.90;11.10;;;16.60;99.90;;;;;;5035537;28;20045;-75
2021/07/04 00:24:53;;;;;;;11.55;9.95;;;16.60;99.90;;;;;;5017471;28;20080;-75
2021/07/04 00:27:18;;;;;;;11.77;9.50;;;16.70;99.90;;;;;;5035494;28;20474;-75
2021/07/04 00:29:44;;;;;;;12.25;7.72;;;16.60;99.90;;;;;;5035241;28;20028;-75
2021/07/04 00:32:09;;;;;;;10.70;8.32;;;16.60;99.90;;;;;;5035749;28;20035;-75
2021/07/04 00:34:35;;;;;;;10.30;7.85;;;16.50;99.90;;;;;;5035369;28;20072;-75
2021/07/04 00:37:00;;;;;;;10.00;7.70;;;16.50;99.90;;;;;;5035283;28;20025;-75
2021/07/04 00:39:26;;;;;;;13.00;7.85;;;16.50;99.90;;;;;;5035221;28;20028;-75
2021/07/04 00:41:51;;;;;;;7.93;6.18;;;16.50;99.90;;;;;;5035323;28;20045;-75
2021/07/04 00:44:17;;;;;;;9.43;6.13;;;16.40;99.90;;;;;;5034970;28;20414;-75
2021/07/04 00:46:42;;;;;;;7.10;5.55;;;16.30;99.90;;;;;;5034863;28;20045;-75
2021/07/04 00:49:08;;;;;;;6.95;5.90;;;16.30;99.90;;;;;;5035088;28;20029;-74
2021/07/04 00:51:34;;;;;;;7.80;5.50;;;16.30;99.90;;;;;;5034753;28;20033;-75
2021/07/04 00:54:00;;;;;;;5.97;5.18;;;16.30;99.90;;;;;;5034961;28;20363;-75
2021/07/04 00:56:25;;;;;;;7.10;5.35;;;16.20;99.90;;;;;;5034717;28;20045;-75
2021/07/04 00:58:51;;;;;;;7.70;5.53;;;16.20;99.90;;;;;;5034646;28;20109;-75
2021/07/04 01:01:16;;;;;;;8.98;6.97;;;16.20;99.90;;;;;;5034699;28;20029;-75
2021/07/04 01:03:42;;;;;;;9.70;6.93;;;16.20;99.90;;;;;;5034710;28;20363;-75
2021/07/04 01:06:08;;;;;;;9.88;7.07;;;16.20;99.90;;;;;;5034715;28;20087;-74
2021/07/04 01:08:33;;;;;;;9.45;7.03;;;16.20;99.90;;;;;;5034021;28;20017;-74
2021/07/04 01:11:02;;;;;;;7.85;6.63;;;16.10;99.90;;;;;;5034491;28;20087;-75
2021/07/04 01:13:28;;;;;;;7.28;6.15;;;16.10;99.90;;;;;;5034792;28;20491;-74
2021/07/04 01:15:54;;;;;;;7.40;6.13;;;16.10;99.90;;;;;;5034377;28;20025;-74
2021/07/04 01:18:21;;;;;;;8.15;6.90;;;16.10;99.90;;;;;;5034659;28;20029;-74
2021/07/04 01:20:46;;;;;;;11.63;7.72;;;16.10;99.90;;;;;;5016462;28;20032;-74
2021/07/04 01:23:15;;;;;;;10.68;7.40;;;16.10;99.90;;;;;;5034416;28;20017;-71
2021/07/04 01:25:53;;;;;;;9.23;6.72;;;16.10;99.90;;;;;;5034028;28;20060;-71
2021/07/04 01:28:20;;;;;;;9.50;7.07;;;16.10;99.90;;;;;;5032269;28;20045;-77
2021/07/04 01:30:51;;;;;;;6.82;6.07;;;16.10;99.90;;;;;;5014465;28;20537;-77
2021/07/04 01:33:17;;;;;;;9.07;6.55;;;16.10;99.90;;;;;;5015470;28;20072;-78
2021/07/04 01:35:43;;;;;;;7.32;5.47;;;16.10;99.90;;;;;;5009712;28;20470;-78
2021/07/04 01:38:09;;;;;;;7.55;6.35;;;16.10;99.90;;;;;;5007485;28;20037;-77
2021/07/04 01:40:34;;;;;;;9.45;6.13;;;16.10;99.90;;;;;;5016623;28;20018;-78
2021/07/04 01:43:01;;;;;;;8.32;6.00;;;16.10;99.90;;;;;;5012004;28;20371;-77
2021/07/04 01:45:27;;;;;;;7.50;6.15;;;16.10;99.90;;;;;;5026536;28;20045;-77
2021/07/04 01:47:54;;;;;;;6.85;5.82;;;16.10;99.90;;;;;;5019433;28;20034;-80
2021/07/04 01:50:32;;;;;;;7.05;6.13;;;16.10;99.90;;;;;;5011300;28;20028;-80
2021/07/04 01:52:57;;;;;;;7.85;5.85;;;16.10;99.90;;;;;;5021957;28;20025;-80
2021/07/04 01:55:23;;;;;;;8.30;6.20;;;16.10;99.90;;;;;;5026276;28;20474;-80
2021/07/04 01:57:50;;;;;;;7.90;6.15;;;16.10;99.90;;;;;;5009395;28;20030;-80
2021/07/04 02:00:24;;;;;;;8.60;6.45;;;16.10;99.90;;;;;;5011989;28;20030;-80
2021/07/04 02:02:52;;;;;;;7.47;6.53;;;16.10;99.90;;;;;;5009711;28;20084;-79
2021/07/04 02:05:19;;;;;;;8.60;6.78;;;16.10;99.90;;;;;;5007206;28;20771;-79
2021/07/04 02:07:44;;;;;;;8.80;6.82;;;16.00;99.90;;;;;;5014761;28;20029;-79
2021/07/04 02:10:18;;;;;;;10.02;6.05;;;16.00;99.90;;;;;;5019177;28;20121;-80
2021/07/04 02:12:44;;;;;;;9.23;7.30;;;16.00;99.90;;;;;;5016207;28;20059;-79
2021/07/04 02:15:18;;;;;;;7.75;6.50;;;16.10;99.90;;;;;;5027691;28;20041;-79
2021/07/04 02:17:44;;;;;;;9.05;6.80;;;16.10;99.90;;;;;;5009899;28;20604;-80
2021/07/04 02:20:34;;;;;;;10.18;7.65;;;16.10;99.90;;;;;;5019751;28;20128;-80
2021/07/04 02:23:00;;;;;;;9.23;6.90;;;16.00;99.90;;;;;;5026014;28;20110;-79
2021/07/04 02:25:26;;;;;;;9.60;6.90;;;16.00;99.90;;;;;;5033774;28;20032;-80
2021/07/04 02:27:52;;;;;;;8.95;7.28;;;16.00;99.90;;;;;;5033737;28;20057;-79
2021/07/04 02:30:18;;;;;;;8.20;7.00;;;16.10;99.90;;;;;;5034246;28;20033;-79
2021/07/04 02:32:43;;;;;;;8.18;6.97;;;16.10;99.90;;;;;;5034225;28;20028;-79
2021/07/04 02:35:10;;;;;;;9.10;7.70;;;16.10;99.90;;;;;;5024309;28;20037;-80
2021/07/04 02:37:35;;;;;;;10.88;7.80;;;16.10;99.90;;;;;;5032733;28;20036;-79
2021/07/04 02:40:01;;;;;;;10.45;7.88;;;16.10;99.90;;;;;;5028863;28;20398;-79
2021/07/04 02:42:27;;;;;;;9.13;7.65;;;16.00;99.90;;;;;;5027983;28;20097;-80
2021/07/04 02:44:52;;;;;;;11.82;7.82;;;16.10;99.90;;;;;;5033775;28;20064;-79
2021/07/04 02:47:18;;;;;;;8.30;7.20;;;16.10;99.90;;;;;;5033511;28;20041;-79
2021/07/04 02:49:44;;;;;;;12.20;8.35;;;16.10;99.90;;;;;;5033512;28;20112;-79
2021/07/04 02:52:09;;;;;;;9.75;7.78;;;16.10;99.90;;;;;;5031514;28;20040;-79
2021/07/04 02:54:35;;;;;;;12.98;7.63;;;16.10;99.90;;;;;;5030990;28;20037;-79
2021/07/04 02:57:05;;;;;;;9.82;7.95;;;16.10;99.90;;;;;;5032483;28;20034;-79
2021/07/04 02:59:34;;;;;;;11.10;8.13;;;16.10;99.90;;;;;;5031417;28;20048;-79
2021/07/04 03:01:59;;;;;;;11.52;8.27;;;16.10;99.90;;;;;;5032016;28;20084;-79
2021/07/04 03:04:25;;;;;;;9.73;7.78;;;16.10;99.90;;;;;;5030304;28;20647;-79
2021/07/04 03:06:51;;;;;;;9.35;8.13;;;16.10;99.90;;;;;;5011611;28;20036;-79
2021/07/04 03:09:16;;;;;;;9.85;7.60;;;16.10;99.90;;;;;;5030539;28;20135;-80
2021/07/04 03:11:42;;;;;;;10.23;7.45;;;16.10;99.90;;;;;;5031005;28;20080;-79
2021/07/04 03:14:07;;;;;;;8.57;6.95;;;16.10;99.90;;;;;;5032520;28;20033;-79
2021/07/04 03:16:33;;;;;;;8.73;7.82;;;16.10;99.90;;;;;;5031584;28;20051;-79
2021/07/04 03:18:59;;;;;;;9.25;8.30;;;16.10;99.90;;;;;;5014905;28;20099;-79
2021/07/04 03:21:25;;;;;;;10.20;8.15;;;16.10;99.90;;;;;;5031402;28;20038;-79
2021/07/04 03:23:51;;;;;;;9.13;8.10;;;16.10;99.90;;;;;;5030859;28;20433;-79
2021/07/04 03:26:16;;;;;;;9.30;8.30;;;16.10;99.90;;;;;;5013595;28;20025;-79
2021/07/04 03:28:42;;;;;;;11.27;8.73;;;16.10;99.90;;;;;;5031290;28;20044;-79
2021/07/04 03:31:08;;;;;;;8.60;7.30;;;16.10;99.90;;;;;;5031297;28;20029;-79
2021/07/04 03:33:33;;;;;;;8.70;7.28;;;16.10;99.90;;;;;;5035393;28;20044;-79
2021/07/04 03:35:59;;;;;;;9.50;7.75;;;16.10;99.90;;;;;;5026930;28;20417;-79
2021/07/04 03:38:25;;;;;;;8.25;7.13;;;16.10;99.90;;;;;;5036241;28;20045;-79
2021/07/04 03:40:50;;;;;;;8.82;7.93;;;16.10;99.90;;;;;;5034499;28;20043;-79
2021/07/04 03:43:16;;;;;;;7.95;7.15;;;16.10;99.90;;;;;;5035690;28;20040;-79
2021/07/04 03:45:41;;;;;;;8.52;7.63;;;16.10;99.90;;;;;;5020648;28;20131;-79
2021/07/04 03:48:07;;;;;;;9.60;7.88;;;16.10;99.90;;;;;;5034291;28;20033;-80
2021/07/04 03:50:33;;;;;;;9.05;7.20;;;16.10;99.90;;;;;;5034695;28;20022;-79
2021/07/04 03:52:58;;;;;;;8.15;7.00;;;16.10;99.90;;;;;;5035112;28;20040;-79
2021/07/04 03:55:24;;;;;;;9.15;6.90;;;16.10;99.90;;;;;;5034582;28;20246;-79
2021/07/04 03:57:52;;;;;;;8.45;7.25;;;16.10;99.90;;;;;;5034049;28;20045;-79
2021/07/04 04:00:18;;;;;;;8.15;6.80;;;16.10;99.90;;;;;;5034427;28;20786;-80
2021/07/04 04:02:44;;;;;;;7.90;7.10;;;16.10;99.90;;;;;;5032715;28;20105;-79
2021/07/04 04:05:10;;;;;;;8.10;6.88;;;16.10;99.90;;;;;;5032626;28;20108;-79
2021/07/04 04:07:36;;;;;;;9.05;7.30;;;16.10;99.90;;;;;;5030798;28;20029;-80
2021/07/04 04:10:05;;;;;;;7.82;7.00;;;16.20;99.90;;;;;;5024469;28;20444;-79
2021/07/04 04:12:30;;;;;;;8.70;6.80;;;16.20;99.90;;;;;;5006107;28;20385;-79
2021/07/04 04:14:56;;;;;;;7.32;6.43;;;16.20;99.90;;;;;;5031236;28;20025;-79
2021/07/04 04:17:22;;;;;;;8.65;6.82;;;16.20;99.90;;;;;;5030265;28;20030;-79
2021/07/04 04:19:47;;;;;;;8.85;6.72;;;16.20;99.90;;;;;;5031261;28;20651;-79
2021/07/04 04:22:13;;;;;;;8.55;6.60;;;16.30;99.90;;;;;;5031172;28;20552;-79
2021/07/04 04:24:39;;;;;;;10.50;6.68;;;16.30;99.90;;;;;;5012697;28;20072;-79
2021/07/04 04:27:05;;;;;;;8.07;6.97;;;16.30;99.90;;;;;;5030643;28;20468;-79
2021/07/04 04:29:31;;;;;;;9.32;6.43;;;16.30;99.90;;;;;;5030829;28;20032;-79
2021/07/04 04:31:57;;;;;;;8.40;6.95;;;16.40;99.90;;;;;;4996459;28;20093;-79
2021/07/04 04:34:22;;;;;;;8.15;6.38;;;16.40;99.90;;;;;;5030301;28;20041;-79
2021/07/04 04:36:48;;;;;;;9.43;6.72;;;16.40;99.90;;;;;;5030649;28;20043;-79
2021/07/04 04:39:13;;;;;;;7.72;6.95;;;16.50;99.90;;;;;;5030309;28;20025;-79
2021/07/04 04:41:39;;;;;;;9.73;6.97;;;16.50;99.90;;;;;;5030929;28;20388;-80
2021/07/04 04:44:06;;;;;;;8.60;6.82;;;16.50;99.90;;;;;;5029124;28;20065;-80
2021/07/04 04:46:32;;;;;;;8.40;7.20;;;16.60;99.90;;;;;;5030571;28;20080;-79
2021/07/04 04:48:57;;;;;;;7.95;7.03;;;16.60;99.90;;;;;;5029660;28;20030;-79
2021/07/04 04:51:23;;;;;;;8.70;6.78;;;16.60;99.90;;;;;;5003496;28;20195;-79
2021/07/04 04:53:49;;;;;;;8.80;6.45;;;16.70;99.90;;;;;;5022086;28;20025;-79
2021/07/04 04:56:15;;;;;;;7.57;6.78;;;16.70;99.90;;;;;;5013148;28;20037;-79
2021/07/04 04:58:41;;;;;;;8.15;7.32;;;16.70;99.90;;;;;;5026699;28;20757;-79
2021/07/04 05:01:06;;;;;;;8.55;7.53;;;16.70;99.90;;;;;;5030849;28;20707;-79
2021/07/04 05:03:32;;;;;;;9.07;7.45;;;16.80;99.90;;;;;;5012178;28;20024;-79
2021/07/04 05:05:57;;;;;;;9.90;7.65;;;16.80;99.90;;;;;;5030675;28;20116;-79
2021/07/04 05:08:25;;;;;;;9.27;7.05;;;16.70;99.90;;;;;;5027711;28;20055;-79
2021/07/04 05:10:51;;;;;;;8.38;6.95;;;16.70;99.90;;;;;;5027689;28;20025;-79
2021/07/04 05:13:18;;;;;;;7.80;6.35;;;16.80;99.90;;;;;;5027396;28;20036;-79
2021/07/04 05:15:43;;;;;;;12.27;8.00;;;16.80;99.90;;;;;;5018761;28;20145;-80
2021/07/04 05:18:09;;;;;;;8.30;7.00;;;16.80;99.90;;;;;;5027069;28;20045;-77
2021/07/04 05:20:35;;;;;;;7.45;6.70;;;16.90;99.90;;;;;;5029503;28;20026;-77
2021/07/04 05:23:00;;;;;;;7.43;6.63;;;16.90;99.90;;;;;;5027845;28;20033;-76
2021/07/04 05:25:26;;;;;;;9.95;7.28;;;16.90;99.90;;;;;;5027701;28;20034;-78
2021/07/04 05:27:51;;;;;;;8.18;7.30;;;16.90;99.90;;;;;;5027669;28;20029;-78
2021/07/04 05:30:17;;;;;;;8.50;7.55;;;17.00;99.90;;;;;;5027416;28;20146;-77
2021/07/04 05:32:43;;;;;;;9.40;7.30;;;17.00;99.90;;;;;;5021537;28;20029;-77
2021/07/04 05:35:09;;;;;;;7.85;7.05;;;17.00;99.90;;;;;;5023636;28;20037;-74
2021/07/04 05:37:35;;;;;;;7.22;6.53;;;17.00;99.90;;;;;;5034253;28;20061;-75
2021/07/04 05:40:03;;;;;;;9.32;7.85;;;17.00;99.90;;;;;;5031491;28;20024;-71
2021/07/04 05:42:29;;;;;;;8.52;7.38;;;17.00;99.90;;;;;;5027856;28;20026;-72
2021/07/04 05:44:57;;;;;;;9.90;7.25;;;17.10;99.90;;;;;;5029068;28;20053;-72
2021/07/04 05:47:23;;;;;;;12.57;7.55;;;17.10;99.90;;;;;;5029166;28;20049;-70
2021/07/04 05:49:49;;;;;;;7.20;6.47;;;17.10;99.90;;;;;;5026281;28;20060;-70
2021/07/04 05:52:14;;;;;;;9.50;7.20;;;17.20;99.90;;;;;;5029103;28;20049;-72
2021/07/04 05:54:40;;;;;;;8.18;7.20;;;17.20;99.90;;;;;;5007742;28;20030;-71
2021/07/04 05:57:06;;;;;;;8.45;7.60;;;17.20;99.90;;;;;;5024618;28;20041;-71
2021/07/04 05:59:35;;;;;;;9.63;6.78;;;17.10;99.90;;;;;;5026116;28;20029;-71
2021/07/04 06:02:01;;;;;;;9.25;7.22;;;17.20;99.90;;;;;;5027246;28;20028;-70
2021/07/04 06:04:28;;;;;;;8.13;7.32;;;17.20;99.90;;;;;;5027511;28;20053;-70
2021/07/04 06:06:53;;;;;;;8.40;7.30;;;17.20;99.90;;;;;;5024975;28;20056;-70
2021/07/04 06:09:19;;;;;;;8.57;6.90;;;17.20;99.90;;;;;;5025090;28;20540;-71
2021/07/04 06:11:49;;;;;;;7.38;6.40;;;17.40;99.90;;;;;;5025123;28;20386;-71
2021/07/04 06:14:14;;;;;;;9.73;7.05;;;17.40;99.90;;;;;;5024779;28;20025;-71
2021/07/04 06:16:40;;;;;;;9.27;6.70;;;17.50;99.90;;;;;;5024397;28;20072;-70
2021/07/04 06:19:05;;;;;;;10.10;6.65;;;17.50;99.90;;;;;;5025823;28;20056;-70
2021/07/04 06:21:31;;;;;;;13.13;6.57;;;17.40;99.90;;;;;;5026259;28;20072;-70
2021/07/04 06:23:57;;;;;;;9.75;7.20;;;17.40;99.90;;;;;;5028099;28;20353;-70
2021/07/04 06:26:22;;;;;;;12.48;7.28;;;17.50;99.90;;;;;;5027636;28;20034;-72
2021/07/04 06:28:48;;;;;;;8.05;6.50;;;17.50;99.90;;;;;;5023893;28;20358;-73
2021/07/04 06:31:14;;;;;;;8.10;7.30;;;17.50;99.90;;;;;;5027528;28;20061;-69
2021/07/04 06:33:39;;;;;;;9.32;7.50;;;17.50;99.90;;;;;;5024974;28;20382;-70
2021/07/04 06:36:05;;;;;;;8.15;7.10;;;17.60;99.90;;;;;;5023957;28;20032;-71
2021/07/04 06:38:30;;;;;;;9.45;6.97;;;17.60;99.90;;;;;;5006207;28;20022;-72
2021/07/04 06:40:56;;;;;;;9.73;7.40;;;17.70;99.90;;;;;;5023708;28;20868;-72
2021/07/04 06:43:22;;;;;;;7.78;6.35;;;17.70;99.90;;;;;;5024131;28;20505;-70
2021/07/04 06:45:47;;;;;;;9.02;7.47;;;17.80;99.90;;;;;;5026262;28;20053;-69
2021/07/04 06:48:13;;;;;;;8.77;6.70;;;17.90;99.90;;;;;;5028035;28;20327;-69
2021/07/04 06:50:38;;;;;;;8.45;7.30;;;18.00;99.90;;;;;;5017998;28;20048;-70
2021/07/04 06:53:04;;;;;;;7.47;6.60;;;18.10;99.90;;;;;;5027919;28;20017;-70
2021/07/04 06:55:30;;;;;;;8.18;6.88;;;18.20;99.90;;;;;;5013832;28;20607;-70
2021/07/04 06:57:55;;;;;;;7.03;6.32;;;18.20;99.90;;;;;;5028015;28;20041;-73
2021/07/04 07:00:21;;;;;;;7.43;6.13;;;18.20;99.90;;;;;;5015331;28;20779;-74
2021/07/04 07:02:47;;;;;;;7.80;5.93;;;18.20;99.90;;;;;;5008812;28;20029;-72
2021/07/04 07:05:14;;;;;;;8.68;5.90;;;18.20;99.90;;;;;;5021419;28;20022;-68
2021/07/04 07:07:40;;;;;;;7.80;5.85;;;18.30;99.90;;;;;;5028170;28;20579;-73
2021/07/04 07:10:08;;;;;;;8.00;5.95;;;18.30;99.90;;;;;;5026261;28;20029;-73
2021/07/04 07:12:33;;;;;;;6.75;5.88;;;18.40;99.90;;;;;;5023848;28;20383;-72
2021/07/04 07:14:59;;;;;;;8.32;5.45;;;18.40;99.90;;;;;;5026992;28;20026;-72
2021/07/04 07:17:25;;;;;;;9.23;6.13;;;18.40;99.90;;;;;;5023038;28;20060;-72
2021/07/04 07:19:52;;;;;;;7.50;6.00;;;18.40;99.90;;;;;;5024813;28;20079;-72
2021/07/04 07:22:18;;;;;;;6.00;5.22;;;18.50;99.90;;;;;;5022076;28;20466;-72
2021/07/04 07:24:44;;;;;;;6.60;5.72;;;18.70;99.90;;;;;;5026505;28;20090;-72
2021/07/04 07:27:10;;;;;;;7.10;5.30;;;18.90;99.90;;;;;;5028340;28;20467;-72
2021/07/04 07:29:35;;;;;;;6.28;5.38;;;18.90;99.90;;;;;;5027927;28;20091;-72
2021/07/04 07:32:01;;;;;;;7.43;5.95;;;19.20;99.90;;;;;;5028496;28;20477;-72
2021/07/04 07:34:27;;;;;;;8.93;6.10;;;19.20;99.90;;;;;;5028370;28;20025;-73
2021/07/04 07:36:53;;;;;;;9.30;6.70;;;19.20;99.90;;;;;;5023102;28;20029;-76
2021/07/04 07:39:18;;;;;;;5.78;5.07;;;19.20;99.90;;;;;;5027583;28;20026;-75
2021/07/04 07:41:44;;;;;;;7.57;5.40;;;19.20;99.90;;;;;;5027491;28;20657;-76
2021/07/04 07:44:12;;;;;;;5.40;4.75;;;19.20;99.90;;;;;;5027384;28;20497;-76
2021/07/04 07:46:38;;;;;;;9.93;6.20;;;19.20;99.90;;;;;;5030301;28;20121;-70
2021/07/04 07:49:04;;;;;;;5.82;5.05;;;19.30;99.90;;;;;;5033305;28;20108;-70
2021/07/04 07:51:30;;;;;;;6.68;5.43;;;19.40;99.90;;;;;;5033691;28;20026;-70
2021/07/04 07:53:55;;;;;;;7.43;5.40;;;19.50;99.90;;;;;;5033176;28;20029;-70
2021/07/04 07:56:21;;;;;;;6.32;4.78;;;19.60;99.90;;;;;;5032660;28;20386;-70
2021/07/04 07:58:47;;;;;;;6.20;4.43;;;19.60;99.90;;;;;;5031812;28;20029;-69
2021/07/04 08:01:14;;;;;;;4.78;4.28;;;19.50;99.90;;;;;;5027242;28;20575;-69
2021/07/04 08:03:40;;;;;;;5.65;4.22;;;19.40;99.90;;;;;;5020384;28;20033;-72
2021/07/04 08:06:05;;;;;;;5.88;4.90;;;19.40;99.90;;;;;;5026148;28;20044;-72
2021/07/04 08:08:31;;;;;;;5.18;4.65;;;19.40;99.90;;;;;;5026591;28;20037;-72
2021/07/04 08:10:56;;;;;;;3.80;3.42;;;19.40;99.90;;;;;;5017901;28;20041;-75
2021/07/04 08:13:22;;;;;;;4.15;3.75;;;19.40;99.90;;;;;;5017687;28;20083;-76
2021/07/04 08:15:48;;;;;;;4.78;4.15;;;19.40;99.90;;;;;;5026355;28;20040;-70
2021/07/04 08:18:13;;;;;;;4.45;3.90;;;19.40;99.90;;;;;;5021528;28;20025;-76
2021/07/04 08:20:39;;;;;;;5.53;3.47;;;19.30;99.90;;;;;;5022083;28;20034;-75
2021/07/04 08:23:06;;;;;;;4.93;3.50;;;19.30;99.90;;;;;;5024581;28;20032;-69
2021/07/04 08:25:32;;;;;;;4.38;3.50;;;19.40;99.90;;;;;;5019391;28;20474;-70
2021/07/04 08:27:57;;;;;;;4.68;3.38;;;19.40;99.90;;;;;;5005980;28;20087;-72
2021/07/04 08:30:23;;;;;;;3.42;2.80;;;19.50;99.90;;;;;;5015900;28;20068;-72
2021/07/04 08:32:48;;;;;;;3.95;2.58;;;19.60;99.90;;;;;;5014187;28;20030;-73
2021/07/04 08:35:14;;;;;;;2.83;2.50;;;19.70;99.90;;;;;;5021710;28;20105;-75
2021/07/04 08:37:40;;;;;;;4.00;2.50;;;20.00;99.90;;;;;;5027362;28;20033;-69
2021/07/04 08:40:07;;;;;;;3.80;2.60;;;20.30;99.90;;;;;;5011641;28;20462;-70
2021/07/04 08:42:33;;;;;;;3.60;2.30;;;20.50;99.90;;;;;;5001172;28;20694;-76
2021/07/04 08:44:58;;;;;;;2.97;2.38;;;20.70;99.90;;;;;;5020509;28;20107;-76
2021/07/04 08:47:24;;;;;;;2.10;1.80;;;20.90;99.90;;;;;;5015812;28;20053;-76
2021/07/04 08:49:52;;;;;;;2.90;1.90;;;21.00;99.90;;;;;;5018869;28;20033;-76
2021/07/04 08:52:18;;;;;;;2.80;1.90;;;21.10;99.90;;;;;;5013421;28;20041;-76
2021/07/04 08:54:44;;;;;;;3.88;2.35;;;21.00;99.90;;;;;;5015592;28;20107;-70
2021/07/04 08:57:11;;;;;;;3.72;2.13;;;21.10;99.90;;;;;;5023722;28;20061;-76
2021/07/04 08:59:37;;;;;;;2.20;1.73;;;21.00;99.90;;;;;;5015543;28;20359;-76
2021/07/04 09:02:04;;;;;;;2.10;1.90;;;21.00;99.90;;;;;;5017422;28;20068;-76
2021/07/04 09:04:30;;;;;;;3.33;2.28;;;21.00;99.90;;;;;;5018673;28;20112;-76
2021/07/04 09:06:56;;;;;;;5.07;3.78;;;21.10;99.90;;;;;;5000221;28;20124;-76
2021/07/04 09:09:25;;;;;;;2.00;1.77;;;20.90;99.90;;;;;;5019375;28;20091;-76
2021/07/04 09:11:52;;;;;;;3.10;1.75;;;20.90;99.90;;;;;;4999832;28;20030;-76
2021/07/04 09:14:28;;;;;;;2.97;1.75;;;21.10;99.90;;;;;;5014373;28;20816;-73
2021/07/04 09:16:55;;;;;;;2.15;1.88;;;21.20;99.90;;;;;;5029377;28;20095;-69
2021/07/04 09:19:21;;;;;;;4.65;1.90;;;21.20;99.90;;;;;;5023096;28;20053;-74
2021/07/04 09:21:58;;;;;;;4.30;2.10;;;21.20;99.90;;;;;;5001165;28;20030;-74
2021/07/04 09:24:32;;;;;;;3.20;2.20;;;21.40;99.90;;;;;;5023221;28;20049;-73
2021/07/04 09:26:58;;;;;;;3.55;2.00;;;21.60;99.90;;;;;;5022107;28;20029;-73
2021/07/04 09:29:47;;;;;;;3.35;2.35;;;21.90;99.90;;;;;;5014773;28;20049;-74
2021/07/04 09:32:17;;;;;;;4.30;2.08;;;22.00;99.90;;;;;;5015433;28;20029;-74
2021/07/04 09:35:14;;;;;;;2.83;2.10;;;22.30;99.90;;;;;;5020644;28;20033;-74
2021/07/04 09:37:46;;;;;;;3.63;2.40;;;22.50;99.90;;;;;;5023361;28;20539;-74
2021/07/04 09:40:20;;;;;;;3.20;2.10;;;22.70;99.90;;;;;;5018784;28;20025;-73
2021/07/04 09:43:16;;;;;;;2.38;1.73;;;22.80;99.90;;;;;;5017777;28;20021;-74
2021/07/04 09:45:44;;;;;;;;;;;23.10;99.90;;;;;;5019669;28;20494;-68
2021/07/04 09:48:09;;;;;;;3.08;1.90;;;23.40;99.90;;;;;;5024413;28;19959;-69
2021/07/04 09:50:44;;;;;;;2.33;1.83;;;23.50;99.90;;;;;;5026937;28;20029;-72
2021/07/04 09:53:10;;;;;;;;;;;23.70;99.90;;;;;;5007374;28;20421;-73
2021/07/04 09:55:36;;;;;;;2.70;2.40;;;23.80;99.90;;;;;;5024635;28;19963;-70
2021/07/04 09:58:08;;;;;;;3.47;2.00;;;23.90;99.90;;;;;;5027901;28;20120;-69
2021/07/04 10:00:37;;;;;;;2.65;1.88;;;24.10;99.90;;;;;;5025091;28;20017;-68
2021/07/04 10:03:11;;;;;;;2.45;1.95;;;24.00;99.90;;;;;;5028671;28;20829;-69
2021/07/04 10:05:58;;;;;;;3.28;2.00;;;23.80;99.90;;;;;;5020258;28;20068;-69
2021/07/04 10:08:24;;;;;;;2.00;1.70;;;23.70;99.90;;;;;;5024742;28;20370;-69
2021/07/04 10:10:55;;;;;;;4.07;2.35;;;23.80;99.90;;;;;;5029175;28;20033;-69
2021/07/04 10:13:21;;;;;;;3.10;1.80;;;23.60;99.90;;;;;;5004138;28;20026;-69
2021/07/04 10:15:47;;;;;;;2.35;1.80;;;23.10;99.90;;;;;;5027919;28;20052;-69
2021/07/04 10:18:16;;;;;;;2.30;2.00;;;22.90;99.90;;;;;;5031967;28;20029;-69
2021/07/04 10:20:43;;;;;;;3.25;2.10;;;22.90;99.90;;;;;;5022430;28;20029;-69
2021/07/04 10:23:11;;;;;;;2.25;2.00;;;22.90;99.90;;;;;;5019932;28;20044;-75
2021/07/04 10:25:37;;;;;;;2.15;1.77;;;22.80;99.90;;;;;;5025806;28;20032;-77
2021/07/04 10:28:03;;;;;;;3.75;2.33;;;22.90;99.90;;;;;;5025609;28;20021;-76
2021/07/04 10:30:31;;;;;;;3.63;2.10;;;23.20;99.90;;;;;;5026168;28;20550;-76
2021/07/04 10:33:23;;;;;;;2.60;2.00;;;23.10;99.90;;;;;;5026431;28;20033;-76
2021/07/04 10:36:08;;;;;;;4.25;2.10;;;23.30;99.90;;;;;;5026359;28;20091;-77
2021/07/04 10:38:44;;;;;;;2.72;1.80;;;23.50;99.90;;;;;;5020372;28;20393;-78
2021/07/04 10:41:13;;;;;;;2.53;1.90;;;23.80;99.90;;;;;;5024145;28;20033;-79
2021/07/04 10:43:58;;;;;;;3.50;2.00;;;23.80;99.90;;;;;;5025633;28;20034;-79
2021/07/04 10:46:49;;;;;;;2.67;2.17;;;23.70;99.90;;;;;;5017612;28;20098;-79
2021/07/04 10:49:22;;;;;;;3.20;1.98;;;23.70;99.90;;;;;;5023155;28;20097;-80
2021/07/04 10:51:55;;;;;;;3.35;2.20;;;23.90;99.90;;;;;;5025518;28;20511;-79
2021/07/04 10:54:44;;;;;;;2.42;1.88;;;24.10;99.90;;;;;;5025813;28;20057;-78
2021/07/04 10:57:21;;;;;;;2.65;2.00;;;24.10;99.90;;;;;;5026752;28;20885;-81
2021/07/04 11:00:10;;;;;;;3.88;2.00;;;24.20;99.90;;;;;;5008322;28;20574;-79
2021/07/04 11:02:46;;;;;;;2.95;2.08;;;23.90;99.90;;;;;;5013254;28;20116;-82
2021/07/04 11:05:17;;;;;;;2.30;1.90;;;23.80;99.90;;;;;;5027326;28;20390;-79
2021/07/04 11:07:55;;;;;;;2.70;2.20;;;23.70;99.90;;;;;;5026722;28;20025;-78
2021/07/04 11:10:24;;;;;;;2.65;2.10;;;23.70;99.90;;;;;;5025835;28;20029;-79
2021/07/04 11:12:52;;;;;;;4.43;2.38;;;23.60;99.90;;;;;;5026422;28;20029;-78
2021/07/04 11:15:17;;;;;;;3.35;2.05;;;23.40;99.90;;;;;;5025998;28;20029;-78
2021/07/04 11:17:58;;;;;;;11.13;2.00;;;23.40;99.90;;;;;;5027902;28;20086;-78
2021/07/04 11:20:57;;;;;;;2.60;1.92;;;23.40;99.90;;;;;;5023904;28;20029;-79
2021/07/04 11:23:27;;;;;;;2.75;2.00;;;23.30;99.90;;;;;;5023433;28;20112;-88
2021/07/04 11:26:12;;;;;;;3.83;2.10;;;23.20;99.90;;;;;;5011269;28;20365;-80
2021/07/04 11:28:46;;;;;;;3.70;2.17;;;23.30;99.90;;;;;;5024389;28;21074;-80
2021/07/04 11:31:19;;;;;;;2.95;2.00;;;23.30;99.90;;;;;;5023390;28;20163;-80
2021/07/04 11:33:48;;;;;;;3.35;2.10;;;23.20;99.90;;;;;;5006000;28;20493;-79
2021/07/04 11:36:26;;;;;;;2.70;2.08;;;23.10;99.90;;;;;;5013178;28;20039;-80
2021/07/04 11:38:51;;;;;;;2.83;2.20;;;23.00;99.90;;;;;;5017329;28;20037;-80
2021/07/04 11:41:36;;;;;;;2.83;2.13;;;23.10;99.90;;;;;;5014766;28;20026;-80
2021/07/04 11:44:14;;;;;;;4.10;3.38;;;23.10;99.90;;;;;;5013037;28;20117;-80
2021/07/04 11:46:41;;;;;;;2.78;1.80;;;23.20;99.90;;;;;;5018122;28;20092;-80
2021/07/04 11:49:14;;;;;;;2.50;2.20;;;23.30;99.90;;;;;;5014053;28;20021;-80
2021/07/04 11:51:48;;;;;;;2.67;1.92;;;23.50;99.90;;;;;;5014769;28;20029;-80
2021/07/04 11:54:38;;;;;;;3.72;2.67;;;23.40;99.90;;;;;;5029332;28;20049;-80
2021/07/04 11:59:56;;;;;;;2.38;2.03;;;23.80;99.90;;;;;;5023876;28;20048;-72
2021/07/04 12:02:21;;;;;;;2.40;2.00;;;24.00;99.90;;;;;;5029751;28;20029;-76
2021/07/04 12:04:47;;;;;;;2.28;1.90;;;24.30;99.90;;;;;;5029611;28;20454;-75
2021/07/04 12:07:15;;;;;;;2.88;2.20;;;24.60;99.90;;;;;;5029640;28;20812;-73
2021/07/04 12:09:48;;;;;;;3.90;2.00;;;24.60;99.90;;;;;;5028528;28;20028;-73
2021/07/04 12:12:26;;;;;;;2.30;1.80;;;24.70;99.90;;;;;;5032539;28;20037;-76
2021/07/04 12:14:53;;;;;;;3.58;2.13;;;24.80;99.90;;;;;;5032103;28;20033;-85
2021/07/04 12:17:31;;;;;;;2.63;2.25;;;24.90;99.90;;;;;;5024709;28;20194;-75
2021/07/04 12:20:01;;;;;;;3.55;1.90;;;24.90;99.90;;;;;;5027241;28;20104;-73
2021/07/04 12:22:51;;;;;;;4.22;3.88;;;25.20;99.90;;;;;;5021002;28;20021;-73
2021/07/04 12:25:28;;;;;;;4.65;4.15;;;25.20;99.90;;;;;;5027929;28;20099;-74
2021/07/04 12:27:59;;;;;;;2.53;2.08;;;25.30;99.90;;;;;;5028974;28;20104;-74
2021/07/04 12:30:26;;;;;;;3.75;2.75;;;25.20;99.90;;;;;;5013211;28;20022;-74
2021/07/04 12:33:05;;;;;;;3.63;1.80;;;25.00;99.90;;;;;;5025610;28;20532;-74
2021/07/04 12:35:43;;;;;;;4.10;2.17;;;24.90;99.90;;;;;;5030646;28;20029;-73
2021/07/04 12:38:17;;;;;;;3.80;2.28;;;24.90;99.90;;;;;;5027774;28;20034;-72
2021/07/04 12:40:55;;;;;;;;;;;24.60;99.90;;;;;;5029353;28;20109;-70
2021/07/04 12:43:28;;;;;;;2.83;2.10;;;24.50;99.90;;;;;;5020215;28;19933;-69
2021/07/04 12:45:56;;;;;;;2.90;2.20;;;24.30;99.90;;;;;;5027646;28;20121;-75
2021/07/04 12:48:23;;;;;;;3.70;2.45;;;24.40;99.90;;;;;;5027229;28;20026;-75
2021/07/04 12:51:00;;;;;;;4.18;2.15;;;24.40;99.90;;;;;;5009040;28;20087;-75
2021/07/04 12:53:42;;;;;;;3.10;1.98;;;24.30;99.90;;;;;;5026657;28;20517;-76